createdAt,value
2022-08-30T00:01:00.792Z,82.78
2022-08-30T00:03:27.527Z,83.05
2022-08-30T00:05:56.216Z,82.92
2022-08-30T00:08:23.061Z,83.08
2022-08-30T00:10:51.216Z,83.24
2022-08-30T00:13:19.519Z,82.91
2022-08-30T00:15:46.749Z,82.80
2022-08-30T00:18:13.409Z,82.62
2022-08-30T00:20:40.340Z,81.89
2022-08-30T00:23:07.402Z,82.42
2022-08-30T00:25:34.475Z,82.62
2022-08-30T00:28:02.518Z,82.52
2022-08-30T00:30:28.913Z,82.03
2022-08-30T00:32:55.576Z,82.07
2022-08-30T00:35:22.671Z,82.11
2022-08-30T00:37:50.863Z,82.24
2022-08-30T00:40:20.335Z,82.22
2022-08-30T00:42:59.598Z,82.28
2022-08-30T00:45:30.513Z,82.77
2022-08-30T00:47:57.930Z,82.29
2022-08-30T00:50:31.085Z,82.57
2022-08-30T00:53:01.323Z,82.50
2022-08-30T00:55:29.210Z,82.33
2022-08-30T00:58:00.178Z,82.55
2022-08-30T01:00:28.517Z,82.76
2022-08-30T01:02:55.331Z,82.65
2022-08-30T01:05:22.022Z,82.93
2022-08-30T01:07:48.469Z,82.85
2022-08-30T01:10:16.526Z,82.62
2022-08-30T01:12:43.914Z,82.07
2022-08-30T01:15:14.467Z,82.83
2022-08-30T01:17:44.999Z,83.52
2022-08-30T01:20:15.600Z,83.57
2022-08-30T01:22:51.116Z,83.99
2022-08-30T01:25:29.928Z,84.33
2022-08-30T01:28:04.587Z,84.46
2022-08-30T01:30:32.479Z,84.73
2022-08-30T01:33:02.967Z,85.00
2022-08-30T01:35:35.228Z,84.75
2022-08-30T01:38:02.070Z,84.71
2022-08-30T01:40:28.537Z,84.87
2022-08-30T01:42:55.174Z,84.71
2022-08-30T01:45:21.781Z,84.56
2022-08-30T01:47:48.286Z,84.20
2022-08-30T01:50:14.876Z,83.95
2022-08-30T01:52:41.914Z,84.08
2022-08-30T01:55:09.136Z,83.58
2022-08-30T01:57:35.699Z,83.78
2022-08-30T02:00:02.465Z,83.64
2022-08-30T02:02:29.633Z,83.63
2022-08-30T02:04:56.981Z,83.34
2022-08-30T02:07:25.133Z,83.27
2022-08-30T02:09:53.093Z,83.24
2022-08-30T02:12:20.907Z,83.51
2022-08-30T02:14:47.758Z,83.52
2022-08-30T02:17:17.044Z,83.19
2022-08-30T02:19:43.669Z,83.13
2022-08-30T02:22:11.037Z,83.69
2022-08-30T02:24:38.031Z,83.91
2022-08-30T02:27:04.763Z,83.86
2022-08-30T02:29:31.454Z,83.89
2022-08-30T02:31:57.928Z,83.52
2022-08-30T02:34:24.567Z,83.81
2022-08-30T02:36:51.149Z,84.04
2022-08-30T02:39:17.749Z,83.63
2022-08-30T02:41:44.404Z,83.85
2022-08-30T02:44:11.400Z,83.97
2022-08-30T02:46:38.611Z,84.00
2022-08-30T02:49:32.486Z,84.15
2022-08-30T02:51:53.814Z,84.41
2022-08-30T02:54:20.334Z,84.31
2022-08-30T02:56:48.407Z,84.30
2022-08-30T02:59:16.231Z,84.29
2022-08-30T03:01:42.731Z,84.28
2022-08-30T03:04:09.868Z,84.21
2022-08-30T03:06:36.815Z,84.00
2022-08-30T03:09:03.658Z,84.40
2022-08-30T03:11:30.143Z,84.39
2022-08-30T03:13:56.653Z,84.31
2022-08-30T03:16:23.286Z,84.27
2022-08-30T03:18:49.763Z,84.34
2022-08-30T03:21:16.865Z,84.88
2022-08-30T03:23:43.933Z,84.92
2022-08-30T03:26:13.139Z,85.19
2022-08-30T03:28:39.672Z,85.50
2022-08-30T03:31:06.444Z,85.78
2022-08-30T03:33:32.904Z,86.00
2022-08-30T03:35:59.390Z,85.85
2022-08-30T03:38:26.130Z,86.22
2022-08-30T03:40:52.703Z,86.11
2022-08-30T03:43:19.399Z,86.20
2022-08-30T03:45:46.263Z,85.97
2022-08-30T03:48:13.021Z,86.10
2022-08-30T03:50:40.577Z,86.02
2022-08-30T03:53:07.264Z,86.33
2022-08-30T03:55:34.148Z,85.94
2022-08-30T03:58:00.698Z,86.16
2022-08-30T04:00:27.512Z,86.00
2022-08-30T04:02:54.150Z,86.24
2022-08-30T04:05:20.986Z,86.49
2022-08-30T04:07:47.428Z,86.66
2022-08-30T04:10:14.187Z,86.79
2022-08-30T04:12:40.753Z,86.85
2022-08-30T04:15:09.478Z,86.98
2022-08-30T04:17:36.141Z,87.11
2022-08-30T04:20:02.956Z,87.14
2022-08-30T04:22:29.435Z,87.17
2022-08-30T04:24:55.885Z,87.44
2022-08-30T04:27:22.603Z,87.43
2022-08-30T04:29:49.598Z,87.44
2022-08-30T04:32:17.057Z,87.46
2022-08-30T04:34:44.068Z,87.19
2022-08-30T04:37:10.565Z,87.01
2022-08-30T04:39:37.237Z,87.27
2022-08-30T04:42:04.207Z,86.48
2022-08-30T04:44:32.138Z,86.53
2022-08-30T04:46:59.085Z,86.56
2022-08-30T04:49:25.776Z,86.53
2022-08-30T04:51:52.262Z,86.72
2022-08-30T04:54:18.812Z,86.55
2022-08-30T04:56:45.528Z,86.73
2022-08-30T04:59:12.053Z,86.75
2022-08-30T05:01:45.442Z,86.75
2022-08-30T05:04:13.821Z,86.87
2022-08-30T05:06:40.555Z,86.74
2022-08-30T05:09:07.206Z,86.80
2022-08-30T05:11:33.747Z,86.51
2022-08-30T05:14:00.343Z,86.34
2022-08-30T05:16:27.279Z,86.10
2022-08-30T05:18:54.608Z,86.01
2022-08-30T05:21:25.442Z,86.73
2022-08-30T05:23:56.010Z,87.57
2022-08-30T05:26:26.507Z,87.76
2022-08-30T05:28:53.524Z,88.46
2022-08-30T05:31:24.114Z,88.46
2022-08-30T05:33:52.400Z,88.65
2022-08-30T05:36:21.065Z,88.86
2022-08-30T05:38:47.642Z,88.89
2022-08-30T05:41:14.500Z,88.81
2022-08-30T05:43:41.012Z,88.70
2022-08-30T05:46:10.638Z,88.92
2022-08-30T05:48:38.097Z,88.63
2022-08-30T05:51:09.224Z,88.66
2022-08-30T05:53:36.240Z,88.37
2022-08-30T05:56:05.621Z,88.31
2022-08-30T05:58:32.768Z,88.04
2022-08-30T06:00:59.973Z,87.97
2022-08-30T06:03:27.277Z,88.06
2022-08-30T06:05:53.995Z,88.23
2022-08-30T06:08:21.235Z,87.85
2022-08-30T06:10:47.984Z,88.20
2022-08-30T06:13:14.900Z,88.33
2022-08-30T06:15:45.071Z,87.74
2022-08-30T06:18:14.755Z,87.77
2022-08-30T06:20:47.482Z,87.45
2022-08-30T06:23:17.970Z,87.22
2022-08-30T06:25:44.900Z,87.42
2022-08-30T06:28:12.261Z,87.31
2022-08-30T06:30:41.683Z,87.09
2022-08-30T06:33:08.573Z,87.01
2022-08-30T06:35:46.719Z,86.87
2022-08-30T06:38:18.911Z,86.82
2022-08-30T06:40:45.641Z,86.73
2022-08-30T06:43:12.174Z,86.76
2022-08-30T06:45:38.669Z,86.41
2022-08-30T06:48:05.114Z,85.04
2022-08-30T06:50:31.993Z,85.38
2022-08-30T06:53:04.385Z,85.62
2022-08-30T06:55:33.261Z,84.50
2022-08-30T06:58:00.886Z,84.21
2022-08-30T07:00:28.016Z,84.22
2022-08-30T07:02:54.979Z,83.57
2022-08-30T07:05:23.595Z,82.62
2022-08-30T07:07:56.014Z,81.72
2022-08-30T07:10:22.505Z,81.35
2022-08-30T07:12:49.369Z,78.93
2022-08-30T07:15:16.565Z,79.35
2022-08-30T07:18:01.436Z,79.35
2022-08-30T07:20:27.886Z,78.03
2022-08-30T07:23:06.700Z,77.93
2022-08-30T07:25:33.254Z,76.75
2022-08-30T07:27:59.773Z,75.97
2022-08-30T07:30:26.303Z,74.55
2022-08-30T07:32:52.820Z,75.12
2022-08-30T07:35:19.254Z,73.36
2022-08-30T07:37:45.722Z,72.02
2022-08-30T07:40:12.734Z,70.81
2022-08-30T07:42:41.093Z,70.78
2022-08-30T07:45:08.676Z,70.88
2022-08-30T07:47:35.247Z,66.52
2022-08-30T07:50:02.424Z,66.94
2022-08-30T07:52:30.819Z,67.73
2022-08-30T07:54:59.146Z,65.28
2022-08-30T07:57:26.514Z,63.63
2022-08-30T07:59:53.315Z,64.67
2022-08-30T08:02:20.505Z,63.73
2022-08-30T08:04:48.517Z,64.34
2022-08-30T08:07:15.327Z,63.53
2022-08-30T08:09:41.858Z,62.45
2022-08-30T08:12:08.734Z,63.07
2022-08-30T08:14:36.156Z,61.41
2022-08-30T08:17:02.882Z,60.90
2022-08-30T08:19:29.384Z,60.25
2022-08-30T08:22:19.423Z,60.11
2022-08-30T08:24:43.704Z,58.45
2022-08-30T08:27:10.170Z,59.65
2022-08-30T08:29:36.706Z,57.60
2022-08-30T08:32:03.505Z,57.56
2022-08-30T08:34:30.031Z,58.45
2022-08-30T08:36:56.518Z,56.92
2022-08-30T08:39:23.016Z,56.90
2022-08-30T08:42:04.040Z,58.10
2022-08-30T08:44:50.656Z,57.43
2022-08-30T08:47:38.615Z,56.14
2022-08-30T08:50:17.467Z,56.80
2022-08-30T08:53:10.812Z,55.69
2022-08-30T08:55:50.434Z,55.27
2022-08-30T08:58:28.467Z,56.26
2022-08-30T09:00:56.734Z,55.61
2022-08-30T09:03:24.901Z,53.40
2022-08-30T09:05:51.489Z,53.98
2022-08-30T09:08:19.853Z,54.24
2022-08-30T09:10:58.865Z,53.37
2022-08-30T09:13:26.505Z,53.94
2022-08-30T09:15:55.934Z,53.67
2022-08-30T09:18:48.987Z,54.06
2022-08-30T09:21:25.848Z,53.14
2022-08-30T09:24:06.854Z,52.95
2022-08-30T09:26:38.218Z,52.83
2022-08-30T09:29:05.839Z,51.66
2022-08-30T09:31:34.166Z,52.21
2022-08-30T09:34:09.733Z,50.68
2022-08-30T09:36:51.832Z,49.98
2022-08-30T09:39:31.348Z,49.54
2022-08-30T09:42:14.258Z,50.04
2022-08-30T09:44:40.756Z,47.88
2022-08-30T09:47:31.811Z,50.01
2022-08-30T09:50:15.436Z,51.12
2022-08-30T09:52:50.948Z,50.55
2022-08-30T09:55:33.193Z,49.72
2022-08-30T09:58:08.759Z,48.97
2022-08-30T10:00:55.899Z,49.44
2022-08-30T10:03:46.864Z,47.88
2022-08-30T10:06:36.651Z,48.50
2022-08-30T10:09:09.030Z,48.58
2022-08-30T10:11:56.626Z,49.19
2022-08-30T10:14:54.972Z,47.88
2022-08-30T10:17:38.938Z,49.06
2022-08-30T10:20:17.084Z,49.38
2022-08-30T10:23:02.355Z,48.46
2022-08-30T10:25:34.737Z,47.72
2022-08-30T10:28:14.628Z,48.52
2022-08-30T10:30:44.335Z,47.99
2022-08-30T10:33:36.903Z,45.36
2022-08-30T10:36:10.270Z,44.67
2022-08-30T10:38:40.599Z,46.39
2022-08-30T10:41:22.289Z,44.87
2022-08-30T10:44:11.902Z,44.65
2022-08-30T10:47:14.302Z,44.77
2022-08-30T10:49:55.546Z,46.02
2022-08-30T10:52:38.965Z,45.22
2022-08-30T10:55:08.504Z,44.94
2022-08-30T10:57:36.481Z,44.93
2022-08-30T11:00:11.912Z,44.37
2022-08-30T11:02:59.029Z,43.37
2022-08-30T11:05:44.399Z,44.09
2022-08-30T11:08:41.098Z,44.78
2022-08-30T11:11:24.855Z,43.11
2022-08-30T11:13:56.906Z,42.11
2022-08-30T11:16:36.458Z,41.95
2022-08-30T11:19:12.246Z,42.04
2022-08-30T11:21:41.832Z,41.64
2022-08-30T11:24:15.876Z,41.65
2022-08-30T11:26:45.388Z,40.07
2022-08-30T11:29:27.559Z,40.95
2022-08-30T11:31:59.715Z,39.81
2022-08-30T11:34:45.486Z,41.18
2022-08-30T11:37:37.509Z,40.85
2022-08-30T11:40:04.349Z,40.29
2022-08-30T11:42:35.401Z,40.27
2022-08-30T11:45:25.005Z,40.90
2022-08-30T11:47:59.830Z,40.17
2022-08-30T11:50:35.864Z,40.36
2022-08-30T11:53:05.588Z,39.71
2022-08-30T11:55:42.607Z,38.75
2022-08-30T11:58:30.333Z,38.80
2022-08-30T12:01:40.918Z,38.84
2022-08-30T12:04:15.246Z,37.94
2022-08-30T12:06:41.945Z,38.04
2022-08-30T12:09:35.364Z,39.07
2022-08-30T12:12:24.108Z,38.86
2022-08-30T12:14:54.637Z,39.11
2022-08-30T12:17:42.105Z,38.38
2022-08-30T12:20:30.842Z,39.36
2022-08-30T12:23:09.692Z,38.57
2022-08-30T12:25:36.239Z,37.48
2022-08-30T12:28:16.332Z,38.99
2022-08-30T12:30:43.935Z,39.50
2022-08-30T12:33:24.086Z,38.31
2022-08-30T12:35:58.242Z,37.71
2022-08-30T12:38:27.474Z,37.50
2022-08-30T12:40:58.186Z,38.60
2022-08-30T12:43:40.445Z,38.03
2022-08-30T12:46:12.520Z,37.73
2022-08-30T12:48:42.882Z,37.41
2022-08-30T12:51:25.707Z,38.85
2022-08-30T12:53:52.404Z,38.61
2022-08-30T12:56:30.432Z,38.97
2022-08-30T12:59:05.931Z,39.41
2022-08-30T13:01:35.681Z,39.81
2022-08-30T13:04:22.085Z,39.32
2022-08-30T13:06:55.981Z,41.33
2022-08-30T13:09:33.935Z,39.73
2022-08-30T13:12:03.185Z,39.47
2022-08-30T13:14:33.928Z,40.18
2022-08-30T13:17:25.702Z,39.75
2022-08-30T13:19:57.294Z,39.65
2022-08-30T13:22:31.730Z,38.81
2022-08-30T13:24:59.140Z,39.18
2022-08-30T13:27:26.789Z,39.75
2022-08-30T13:29:53.712Z,40.27
2022-08-30T13:32:21.183Z,39.23
2022-08-30T13:34:47.810Z,39.35
2022-08-30T13:40:13.378Z,39.08
2022-08-30T13:42:42.996Z,38.90
2022-08-30T13:47:57.706Z,38.58
2022-08-30T13:50:24.251Z,38.47
2022-08-30T13:52:52.247Z,37.93
2022-08-30T13:55:18.750Z,38.25
2022-08-30T13:57:54.391Z,38.30
2022-08-30T14:00:22.359Z,38.28
2022-08-30T14:02:54.259Z,38.37
2022-08-30T14:11:07.005Z,38.01
2022-08-30T14:13:33.835Z,37.32
2022-08-30T14:18:51.241Z,36.95
2022-08-30T14:21:18.031Z,37.03
2022-08-30T14:23:48.313Z,37.20
2022-08-30T14:26:22.546Z,37.52
2022-08-30T14:28:51.576Z,38.16
2022-08-30T14:31:19.979Z,36.95
2022-08-30T14:33:47.114Z,37.93
2022-08-30T14:36:15.280Z,37.54
2022-08-30T14:38:42.987Z,38.36
2022-08-30T14:41:10.809Z,37.48
2022-08-30T14:43:39.640Z,38.36
2022-08-30T14:46:06.332Z,38.39
2022-08-30T14:48:32.885Z,38.87
2022-08-30T14:50:59.466Z,39.05
2022-08-30T14:53:26.439Z,38.37
2022-08-30T14:55:52.969Z,38.91
2022-08-30T14:58:19.521Z,37.93
2022-08-30T15:00:52.856Z,38.90
2022-08-30T15:03:19.586Z,39.12
2022-08-30T15:05:52.869Z,39.93
2022-08-30T15:08:19.911Z,39.79
2022-08-30T15:10:47.429Z,39.76
2022-08-30T15:13:14.734Z,38.74
2022-08-30T15:15:44.275Z,38.91
2022-08-30T15:18:10.887Z,39.35
2022-08-30T15:20:37.833Z,39.29
2022-08-30T15:23:05.004Z,39.93
2022-08-30T15:25:31.906Z,40.00
2022-08-30T15:27:58.555Z,40.57
2022-08-30T15:30:25.234Z,39.30
2022-08-30T15:32:51.940Z,40.03
2022-08-30T15:35:18.703Z,39.33
2022-08-30T15:37:45.414Z,38.84
2022-08-30T15:40:12.646Z,39.47
2022-08-30T15:42:39.901Z,39.13
2022-08-30T15:45:09.589Z,39.25
2022-08-30T15:47:36.365Z,40.08
2022-08-30T15:50:06.595Z,39.81
2022-08-30T15:52:33.756Z,39.25
2022-08-30T15:55:00.300Z,39.23
2022-08-30T15:57:26.858Z,39.68
2022-08-30T15:59:54.673Z,39.68
2022-08-30T16:02:22.228Z,40.68
2022-08-30T16:04:54.338Z,40.38
2022-08-30T16:07:20.868Z,39.42
2022-08-30T16:09:47.484Z,39.37
2022-08-30T16:12:22.315Z,40.18
2022-08-30T16:14:50.819Z,39.17
2022-08-30T16:17:17.555Z,39.17
2022-08-30T16:19:44.958Z,39.46
2022-08-30T16:22:11.787Z,39.25
2022-08-30T16:24:38.799Z,39.61
2022-08-30T16:27:05.753Z,39.05
2022-08-30T16:29:35.474Z,39.77
2022-08-30T16:32:02.109Z,39.13
2022-08-30T16:34:28.755Z,39.10
2022-08-30T16:36:55.427Z,38.13
2022-08-30T16:39:22.292Z,39.20
2022-08-30T16:41:48.930Z,40.00
2022-08-30T16:44:17.925Z,39.27
2022-08-30T16:46:53.367Z,39.86
2022-08-30T16:49:20.908Z,39.62
2022-08-30T16:51:49.697Z,39.81
2022-08-30T16:54:19.864Z,39.83
2022-08-30T16:56:46.432Z,40.63
2022-08-30T16:59:13.691Z,40.86
2022-08-30T17:01:42.413Z,40.85
2022-08-30T17:04:09.737Z,40.92
2022-08-30T17:06:37.086Z,40.99
2022-08-30T17:09:07.786Z,41.64
2022-08-30T17:11:36.023Z,41.82
2022-08-30T17:14:03.640Z,41.82
2022-08-30T17:16:30.330Z,42.31
2022-08-30T17:19:00.350Z,42.43
2022-08-30T17:21:28.829Z,42.38
2022-08-30T17:24:01.371Z,42.80
2022-08-30T17:26:29.359Z,43.28
2022-08-30T17:28:55.939Z,43.17
2022-08-30T17:31:22.574Z,43.08
2022-08-30T17:33:50.031Z,43.69
2022-08-30T17:36:16.536Z,44.33
2022-08-30T17:38:45.071Z,44.57
2022-08-30T17:41:29.378Z,45.18
2022-08-30T17:43:58.393Z,44.89
2022-08-30T17:46:25.299Z,44.65
2022-08-30T17:48:58.047Z,45.48
2022-08-30T17:51:29.703Z,45.40
2022-08-30T17:53:56.654Z,46.22
2022-08-30T17:56:24.321Z,45.95
2022-08-30T17:59:00.879Z,46.27
2022-08-30T18:01:28.225Z,46.71
2022-08-30T18:04:01.826Z,47.08
2022-08-30T18:06:28.754Z,46.83
2022-08-30T18:08:55.441Z,46.70
2022-08-30T18:11:22.056Z,47.04
2022-08-30T18:13:48.490Z,47.14
2022-08-30T18:16:15.055Z,47.73
2022-08-30T18:18:49.976Z,47.94
2022-08-30T18:21:22.008Z,47.65
2022-08-30T18:23:50.010Z,48.15
2022-08-30T18:26:18.970Z,48.22
2022-08-30T18:28:50.700Z,48.18
2022-08-30T18:31:17.301Z,48.75
2022-08-30T18:33:44.681Z,49.11
2022-08-30T18:36:11.908Z,48.79
2022-08-30T18:38:39.379Z,49.57
2022-08-30T18:41:08.888Z,49.60
2022-08-30T18:43:36.780Z,50.18
2022-08-30T18:46:06.342Z,50.32
2022-08-30T18:48:34.284Z,50.73
2022-08-30T18:51:01.891Z,50.99
2022-08-30T18:53:29.438Z,51.24
2022-08-30T18:55:57.170Z,51.08
2022-08-30T18:58:23.680Z,51.66
2022-08-30T19:00:50.757Z,51.60
2022-08-30T19:03:18.768Z,51.79
2022-08-30T19:05:45.276Z,51.63
2022-08-30T19:08:11.801Z,52.57
2022-08-30T19:10:38.412Z,52.19
2022-08-30T19:13:06.287Z,52.80
2022-08-30T19:15:36.463Z,53.48
2022-08-30T19:18:16.679Z,53.46
2022-08-30T19:20:45.222Z,53.64
2022-08-30T19:23:12.215Z,53.65
2022-08-30T19:25:41.830Z,54.32
2022-08-30T19:28:09.276Z,54.03
2022-08-30T19:30:36.219Z,54.76
2022-08-30T19:33:03.142Z,54.80
2022-08-30T19:35:30.130Z,55.36
2022-08-30T19:37:56.999Z,55.84
2022-08-30T19:40:23.561Z,55.65
2022-08-30T19:42:52.268Z,56.02
2022-08-30T19:45:21.647Z,56.59
2022-08-30T19:47:49.459Z,56.87
2022-08-30T19:50:16.780Z,57.55
2022-08-30T19:52:44.604Z,57.69
2022-08-30T19:55:13.534Z,58.33
2022-08-30T19:57:42.962Z,58.36
2022-08-30T20:00:11.244Z,58.67
2022-08-30T20:02:38.629Z,58.72
2022-08-30T20:05:05.760Z,59.44
2022-08-30T20:07:36.071Z,59.37
2022-08-30T20:10:09.813Z,59.68
2022-08-30T20:12:37.165Z,59.71
2022-08-30T20:15:09.239Z,59.48
2022-08-30T20:18:01.947Z,60.14
2022-08-30T20:20:23.588Z,60.57
2022-08-30T20:22:54.251Z,61.10
2022-08-30T20:25:21.772Z,61.74
2022-08-30T20:27:49.166Z,62.23
2022-08-30T20:30:17.447Z,62.96
2022-08-30T20:32:46.596Z,62.71
2022-08-30T20:35:15.077Z,63.38
2022-08-30T20:37:43.275Z,63.87
2022-08-30T20:40:15.539Z,63.77
2022-08-30T20:42:44.467Z,64.13
2022-08-30T20:45:13.833Z,64.75
2022-08-30T20:47:41.758Z,64.78
2022-08-30T20:50:13.423Z,65.17
2022-08-30T20:52:40.500Z,65.18
2022-08-30T20:55:07.988Z,65.84
2022-08-30T20:57:34.597Z,65.92
2022-08-30T21:00:01.775Z,66.01
2022-08-30T21:02:28.486Z,66.26
2022-08-30T21:04:55.072Z,66.71
2022-08-30T21:07:21.614Z,66.47
2022-08-30T21:09:48.156Z,66.95
2022-08-30T21:12:14.684Z,66.79
2022-08-30T21:14:41.177Z,66.88
2022-08-30T21:17:07.787Z,67.13
2022-08-30T21:19:34.323Z,67.34
2022-08-30T21:22:01.683Z,67.49
2022-08-30T21:24:28.174Z,67.52
2022-08-30T21:26:55.782Z,67.91
2022-08-30T21:29:22.562Z,67.69
2022-08-30T21:31:49.048Z,67.99
2022-08-30T21:34:17.424Z,68.04
2022-08-30T21:36:47.349Z,68.46
2022-08-30T21:39:26.515Z,68.39
2022-08-30T21:41:57.030Z,68.34
2022-08-30T21:44:26.233Z,68.32
2022-08-30T21:46:54.954Z,68.50
2022-08-30T21:49:23.579Z,68.69
2022-08-30T21:51:52.419Z,68.63
2022-08-30T21:54:19.561Z,68.55
2022-08-30T21:56:47.929Z,68.69
2022-08-30T21:59:14.805Z,68.61
2022-08-30T22:01:43.168Z,68.51
2022-08-30T22:04:10.761Z,68.81
2022-08-30T22:06:39.986Z,69.14
2022-08-30T22:09:09.659Z,69.18
2022-08-30T22:11:36.965Z,69.17
2022-08-30T22:14:05.511Z,69.01
2022-08-30T22:16:32.683Z,69.18
2022-08-30T22:18:59.443Z,69.44
2022-08-30T22:21:29.048Z,69.47
2022-08-30T22:23:56.251Z,69.29
2022-08-30T22:26:24.388Z,69.43
2022-08-30T22:28:52.439Z,69.62
2022-08-30T22:31:19.716Z,69.00
2022-08-30T22:33:47.966Z,69.24
2022-08-30T22:36:19.065Z,69.19
2022-08-30T22:38:45.656Z,69.42
2022-08-30T22:41:17.047Z,69.21
2022-08-30T22:43:44.403Z,69.00
2022-08-30T22:46:11.799Z,69.44
2022-08-30T22:48:41.263Z,69.41
2022-08-30T22:51:08.277Z,69.41
2022-08-30T22:53:35.308Z,69.51
2022-08-30T22:56:10.570Z,69.35
2022-08-30T22:58:37.498Z,69.53
2022-08-30T23:01:05.510Z,69.71
2022-08-30T23:03:32.650Z,69.16
2022-08-30T23:06:01.697Z,69.70
2022-08-30T23:08:28.454Z,69.51
2022-08-30T23:10:57.860Z,69.81
2022-08-30T23:13:25.006Z,69.97
2022-08-30T23:15:51.785Z,69.77
2022-08-30T23:18:18.433Z,69.69
2022-08-30T23:20:45.469Z,69.97
2022-08-30T23:23:30.874Z,70.10
2022-08-30T23:26:19.364Z,70.31
2022-08-30T23:29:04.729Z,70.23
2022-08-30T23:31:49.876Z,70.08
2022-08-30T23:34:34.945Z,70.12
2022-08-30T23:37:19.757Z,70.17
2022-08-30T23:40:04.862Z,70.25
2022-08-30T23:42:49.924Z,70.34
2022-08-30T23:45:35.678Z,70.38
2022-08-30T23:48:20.905Z,70.34
2022-08-30T23:51:06.098Z,70.31
2022-08-30T23:53:51.121Z,70.44
2022-08-30T23:56:36.641Z,70.43
2022-08-30T23:59:21.812Z,70.67
